Riyadh, Saudi Arabia
Current Conditions -  °F | °C
As of 5:00 PM on Monday 22 Dec 2014 (Local Time) from OERY Reporting Station
Broken Clouds Broken Clouds  
Wind Chill: 18°   Ceiling: 8000
Heat Index: 18°   Visibility: 6mi
Dew Point:   Wind: 6mph
Humidity: 34%   Direction: 50°NE
Pressure: 30.06"   Gusts: NA
Location:  24.65°N, 46.77°E
Report Text: OERY 221400Z 05005KT 9999 FEW040 BKN080 18/02 Q1018
Loading
Personal Weather Stations






























Interactive Weather Map New forecast layout! Learn more

10-Day Weather Forecast

Advertisements
Track Severe Weather on mobile